sensor_id;sensor_type;location;lat;lon;timestamp;temperature;humidity
9414;DHT22;4746;35.664;139.738;2022-12-05T00:01:25;9.70;99.90
9414;DHT22;4746;35.664;139.738;2022-12-05T00:03:58;9.70;99.90
9414;DHT22;4746;35.664;139.738;2022-12-05T00:06:27;9.70;1.00
9414;DHT22;4746;35.664;139.738;2022-12-05T00:08:57;9.70;1.00
9414;DHT22;4746;35.664;139.738;2022-12-05T00:11:28;9.70;1.00
9414;DHT22;4746;35.664;139.738;2022-12-05T00:13:59;9.70;99.90
9414;DHT22;4746;35.664;139.738;2022-12-05T00:16:29;9.60;99.90
9414;DHT22;4746;35.664;139.738;2022-12-05T00:19:01;9.60;99.90
9414;DHT22;4746;35.664;139.738;2022-12-05T00:21:32;9.50;99.90
9414;DHT22;4746;35.664;139.738;2022-12-05T00:24:03;9.50;99.90
9414;DHT22;4746;35.664;139.738;2022-12-05T00:26:33;9.50;99.90
9414;DHT22;4746;35.664;139.738;2022-12-05T00:29:01;9.50;99.90
9414;DHT22;4746;35.664;139.738;2022-12-05T00:31:29;9.50;99.90
9414;DHT22;4746;35.664;139.738;2022-12-05T00:34:00;9.50;99.90
9414;DHT22;4746;35.664;139.738;2022-12-05T00:36:30;9.50;1.00
9414;DHT22;4746;35.664;139.738;2022-12-05T00:39:07;9.50;99.90
9414;DHT22;4746;35.664;139.738;2022-12-05T00:41:36;9.50;99.90
9414;DHT22;4746;35.664;139.738;2022-12-05T00:44:05;9.50;99.90
9414;DHT22;4746;35.664;139.738;2022-12-05T00:46:35;9.50;80.60
9414;DHT22;4746;35.664;139.738;2022-12-05T00:49:04;9.50;20.90
9414;DHT22;4746;35.664;139.738;2022-12-05T00:51:39;9.50;1.00
9414;DHT22;4746;35.664;139.738;2022-12-05T00:54:11;9.50;1.00
9414;DHT22;4746;35.664;139.738;2022-12-05T00:56:41;9.50;1.00
9414;DHT22;4746;35.664;139.738;2022-12-05T00:59:17;9.50;1.00
9414;DHT22;4746;35.664;139.738;2022-12-05T01:01:47;9.60;1.00
9414;DHT22;4746;35.664;139.738;2022-12-05T01:04:19;9.60;1.00
9414;DHT22;4746;35.664;139.738;2022-12-05T01:06:49;9.60;1.00
9414;DHT22;4746;35.664;139.738;2022-12-05T01:09:21;9.60;1.00
9414;DHT22;4746;35.664;139.738;2022-12-05T01:11:49;9.70;1.00
9414;DHT22;4746;35.664;139.738;2022-12-05T01:14:20;9.70;1.00
9414;DHT22;4746;35.664;139.738;2022-12-05T01:16:50;9.70;1.00
9414;DHT22;4746;35.664;139.738;2022-12-05T01:19:28;9.70;1.00
9414;DHT22;4746;35.664;139.738;2022-12-05T01:21:58;9.80;1.00
9414;DHT22;4746;35.664;139.738;2022-12-05T01:24:27;9.90;1.00
9414;DHT22;4746;35.664;139.738;2022-12-05T01:26:56;10.00;1.00
9414;DHT22;4746;35.664;139.738;2022-12-05T01:29:24;10.10;1.00
9414;DHT22;4746;35.664;139.738;2022-12-05T01:31:52;10.10;1.00
9414;DHT22;4746;35.664;139.738;2022-12-05T01:34:20;10.10;1.00
9414;DHT22;4746;35.664;139.738;2022-12-05T01:36:48;10.20;1.00
9414;DHT22;4746;35.664;139.738;2022-12-05T01:39:16;10.20;1.00
9414;DHT22;4746;35.664;139.738;2022-12-05T01:41:48;10.20;1.00
9414;DHT22;4746;35.664;139.738;2022-12-05T01:46:49;10.30;1.00
9414;DHT22;4746;35.664;139.738;2022-12-05T01:49:25;10.30;1.00
9414;DHT22;4746;35.664;139.738;2022-12-05T01:52:19;10.30;1.00
9414;DHT22;4746;35.664;139.738;2022-12-05T01:54:53;10.30;1.00
9414;DHT22;4746;35.664;139.738;2022-12-05T01:57:26;10.30;1.00
9414;DHT22;4746;35.664;139.738;2022-12-05T01:59:59;10.30;1.00
9414;DHT22;4746;35.664;139.738;2022-12-05T02:02:31;10.30;1.00
9414;DHT22;4746;35.664;139.738;2022-12-05T02:05:09;10.30;1.00
9414;DHT22;4746;35.664;139.738;2022-12-05T02:08:00;10.30;1.00
9414;DHT22;4746;35.664;139.738;2022-12-05T02:10:41;10.30;1.00
9414;DHT22;4746;35.664;139.738;2022-12-05T02:23:02;10.10;1.00
9414;DHT22;4746;35.664;139.738;2022-12-05T02:37:31;10.00;1.00
9414;DHT22;4746;35.664;139.738;2022-12-05T02:40:53;10.10;1.00
9414;DHT22;4746;35.664;139.738;2022-12-05T02:43:36;10.20;1.00
9414;DHT22;4746;35.664;139.738;2022-12-05T02:46:21;10.40;1.00
9414;DHT22;4746;35.664;139.738;2022-12-05T02:49:00;10.40;1.00
9414;DHT22;4746;35.664;139.738;2022-12-05T02:51:34;10.50;1.00
9414;DHT22;4746;35.664;139.738;2022-12-05T02:54:17;10.60;1.00
9414;DHT22;4746;35.664;139.738;2022-12-05T02:56:49;10.70;1.00
9414;DHT22;4746;35.664;139.738;2022-12-05T02:59:20;10.70;1.00
9414;DHT22;4746;35.664;139.738;2022-12-05T03:01:48;10.80;1.00
9414;DHT22;4746;35.664;139.738;2022-12-05T03:04:16;10.90;1.00
9414;DHT22;4746;35.664;139.738;2022-12-05T03:07:08;11.00;1.00
9414;DHT22;4746;35.664;139.738;2022-12-05T03:09:49;11.10;1.00
9414;DHT22;4746;35.664;139.738;2022-12-05T03:12:35;11.10;1.00
9414;DHT22;4746;35.664;139.738;2022-12-05T03:15:15;11.10;1.00
9414;DHT22;4746;35.664;139.738;2022-12-05T03:17:53;11.00;1.00
9414;DHT22;4746;35.664;139.738;2022-12-05T03:20:33;10.90;1.00
9414;DHT22;4746;35.664;139.738;2022-12-05T03:23:07;10.80;1.00
9414;DHT22;4746;35.664;139.738;2022-12-05T03:26:09;10.70;1.00
9414;DHT22;4746;35.664;139.738;2022-12-05T03:34:57;10.60;1.00
9414;DHT22;4746;35.664;139.738;2022-12-05T03:38:02;10.60;1.00
9414;DHT22;4746;35.664;139.738;2022-12-05T03:41:25;10.70;1.00
9414;DHT22;4746;35.664;139.738;2022-12-05T03:44:22;10.70;1.00
9414;DHT22;4746;35.664;139.738;2022-12-05T03:47:20;10.90;1.00
9414;DHT22;4746;35.664;139.738;2022-12-05T03:50:33;10.90;1.00
9414;DHT22;4746;35.664;139.738;2022-12-05T03:53:07;10.90;1.00
9414;DHT22;4746;35.664;139.738;2022-12-05T03:55:40;10.90;1.00
9414;DHT22;4746;35.664;139.738;2022-12-05T03:58:35;10.90;1.00
9414;DHT22;4746;35.664;139.738;2022-12-05T04:01:10;10.80;1.00
9414;DHT22;4746;35.664;139.738;2022-12-05T04:03:49;10.80;1.00
9414;DHT22;4746;35.664;139.738;2022-12-05T04:06:34;10.70;1.00
9414;DHT22;4746;35.664;139.738;2022-12-05T04:09:28;10.70;1.00
9414;DHT22;4746;35.664;139.738;2022-12-05T04:12:26;10.60;1.00
9414;DHT22;4746;35.664;139.738;2022-12-05T04:15:00;10.60;1.00
9414;DHT22;4746;35.664;139.738;2022-12-05T04:17:39;10.60;1.00
9414;DHT22;4746;35.664;139.738;2022-12-05T04:20:31;10.70;1.00
9414;DHT22;4746;35.664;139.738;2022-12-05T04:23:25;10.80;1.00
9414;DHT22;4746;35.664;139.738;2022-12-05T04:29:36;11.00;1.00
9414;DHT22;4746;35.664;139.738;2022-12-05T04:31:43;11.10;1.00
9414;DHT22;4746;35.664;139.738;2022-12-05T04:34:18;11.10;1.00
9414;DHT22;4746;35.664;139.738;2022-12-05T04:37:09;11.10;1.00
9414;DHT22;4746;35.664;139.738;2022-12-05T04:40:09;11.10;1.00
9414;DHT22;4746;35.664;139.738;2022-12-05T04:42:44;11.10;1.00
9414;DHT22;4746;35.664;139.738;2022-12-05T04:45:17;11.10;1.00
9414;DHT22;4746;35.664;139.738;2022-12-05T04:47:55;11.00;1.00
9414;DHT22;4746;35.664;139.738;2022-12-05T04:50:29;10.90;1.00
9414;DHT22;4746;35.664;139.738;2022-12-05T04:53:01;10.90;1.00
9414;DHT22;4746;35.664;139.738;2022-12-05T04:55:32;10.80;1.00
9414;DHT22;4746;35.664;139.738;2022-12-05T04:58:10;10.70;1.00
9414;DHT22;4746;35.664;139.738;2022-12-05T05:06:39;10.20;1.00
9414;DHT22;4746;35.664;139.738;2022-12-05T05:09:08;10.20;1.00
9414;DHT22;4746;35.664;139.738;2022-12-05T05:11:37;10.10;1.00
9414;DHT22;4746;35.664;139.738;2022-12-05T05:14:05;10.00;1.00
9414;DHT22;4746;35.664;139.738;2022-12-05T05:16:35;9.90;1.00
9414;DHT22;4746;35.664;139.738;2022-12-05T05:19:06;9.80;1.00
9414;DHT22;4746;35.664;139.738;2022-12-05T05:21:37;9.70;1.00
9414;DHT22;4746;35.664;139.738;2022-12-05T05:24:08;9.70;1.00
9414;DHT22;4746;35.664;139.738;2022-12-05T05:26:40;9.70;1.00
9414;DHT22;4746;35.664;139.738;2022-12-05T05:29:09;9.70;1.00
9414;DHT22;4746;35.664;139.738;2022-12-05T05:31:39;9.70;1.00
9414;DHT22;4746;35.664;139.738;2022-12-05T05:34:07;9.70;1.00
9414;DHT22;4746;35.664;139.738;2022-12-05T05:36:36;9.70;1.00
9414;DHT22;4746;35.664;139.738;2022-12-05T05:39:05;9.70;1.00
9414;DHT22;4746;35.664;139.738;2022-12-05T05:41:37;9.60;1.00
9414;DHT22;4746;35.664;139.738;2022-12-05T05:44:05;9.50;1.00
9414;DHT22;4746;35.664;139.738;2022-12-05T05:46:33;9.50;1.00
9414;DHT22;4746;35.664;139.738;2022-12-05T05:49:03;9.40;1.00
9414;DHT22;4746;35.664;139.738;2022-12-05T05:51:31;9.30;1.00
9414;DHT22;4746;35.664;139.738;2022-12-05T05:53:59;9.30;1.00
9414;DHT22;4746;35.664;139.738;2022-12-05T05:56:29;9.20;1.00
9414;DHT22;4746;35.664;139.738;2022-12-05T05:59:00;9.20;1.00
9414;DHT22;4746;35.664;139.738;2022-12-05T06:01:29;9.20;1.00
9414;DHT22;4746;35.664;139.738;2022-12-05T06:03:57;9.20;1.00
9414;DHT22;4746;35.664;139.738;2022-12-05T06:06:25;9.10;1.00
9414;DHT22;4746;35.664;139.738;2022-12-05T06:08:55;9.00;1.00
9414;DHT22;4746;35.664;139.738;2022-12-05T06:11:25;9.00;1.00
9414;DHT22;4746;35.664;139.738;2022-12-05T06:13:55;9.00;1.00
9414;DHT22;4746;35.664;139.738;2022-12-05T06:16:26;9.00;1.00
9414;DHT22;4746;35.664;139.738;2022-12-05T06:18:55;8.80;1.00
9414;DHT22;4746;35.664;139.738;2022-12-05T06:21:23;8.80;1.00
9414;DHT22;4746;35.664;139.738;2022-12-05T06:23:51;8.70;1.00
9414;DHT22;4746;35.664;139.738;2022-12-05T06:26:20;8.60;99.90
9414;DHT22;4746;35.664;139.738;2022-12-05T06:28:48;8.60;99.90
9414;DHT22;4746;35.664;139.738;2022-12-05T06:31:23;8.50;1.00
9414;DHT22;4746;35.664;139.738;2022-12-05T06:34:00;8.50;1.00
9414;DHT22;4746;35.664;139.738;2022-12-05T06:36:30;8.40;99.90
9414;DHT22;4746;35.664;139.738;2022-12-05T06:38:58;8.40;99.90
9414;DHT22;4746;35.664;139.738;2022-12-05T06:41:26;8.30;7.90
9414;DHT22;4746;35.664;139.738;2022-12-05T06:43:58;8.20;1.00
9414;DHT22;4746;35.664;139.738;2022-12-05T06:46:25;8.10;99.90
9414;DHT22;4746;35.664;139.738;2022-12-05T06:48:57;8.10;99.90
9414;DHT22;4746;35.664;139.738;2022-12-05T06:51:25;8.10;1.00
9414;DHT22;4746;35.664;139.738;2022-12-05T06:53:53;8.10;99.90
9414;DHT22;4746;35.664;139.738;2022-12-05T06:56:21;8.10;1.00
9414;DHT22;4746;35.664;139.738;2022-12-05T06:58:49;8.10;1.00
9414;DHT22;4746;35.664;139.738;2022-12-05T07:01:21;8.10;1.00
9414;DHT22;4746;35.664;139.738;2022-12-05T07:04:28;8.00;99.90
9414;DHT22;4746;35.664;139.738;2022-12-05T07:06:55;8.00;1.00
9414;DHT22;4746;35.664;139.738;2022-12-05T07:09:24;8.00;1.00
9414;DHT22;4746;35.664;139.738;2022-12-05T07:12:12;8.00;99.90
9414;DHT22;4746;35.664;139.738;2022-12-05T07:14:41;8.00;1.00
9414;DHT22;4746;35.664;139.738;2022-12-05T07:17:09;8.00;1.00
9414;DHT22;4746;35.664;139.738;2022-12-05T07:19:37;7.90;1.00
9414;DHT22;4746;35.664;139.738;2022-12-05T07:22:04;7.90;1.00
9414;DHT22;4746;35.664;139.738;2022-12-05T07:24:32;7.90;1.00
9414;DHT22;4746;35.664;139.738;2022-12-05T07:26:59;7.90;1.00
9414;DHT22;4746;35.664;139.738;2022-12-05T07:29:27;7.90;1.00
9414;DHT22;4746;35.664;139.738;2022-12-05T07:31:54;7.90;1.00
9414;DHT22;4746;35.664;139.738;2022-12-05T07:34:22;7.90;1.00
9414;DHT22;4746;35.664;139.738;2022-12-05T07:36:49;7.90;1.00
9414;DHT22;4746;35.664;139.738;2022-12-05T07:39:17;7.80;1.00
9414;DHT22;4746;35.664;139.738;2022-12-05T07:41:45;7.80;1.00
9414;DHT22;4746;35.664;139.738;2022-12-05T07:44:12;7.70;1.00
9414;DHT22;4746;35.664;139.738;2022-12-05T07:46:40;7.70;1.00
9414;DHT22;4746;35.664;139.738;2022-12-05T07:49:08;7.70;1.00
9414;DHT22;4746;35.664;139.738;2022-12-05T07:51:36;7.70;1.00
9414;DHT22;4746;35.664;139.738;2022-12-05T07:54:04;7.70;1.00
9414;DHT22;4746;35.664;139.738;2022-12-05T07:56:32;7.70;1.00
9414;DHT22;4746;35.664;139.738;2022-12-05T07:59:00;7.70;1.00
9414;DHT22;4746;35.664;139.738;2022-12-05T08:01:28;7.70;1.00
9414;DHT22;4746;35.664;139.738;2022-12-05T08:03:57;7.70;1.00
9414;DHT22;4746;35.664;139.738;2022-12-05T08:06:29;7.70;1.00
9414;DHT22;4746;35.664;139.738;2022-12-05T08:08:57;7.60;1.00
9414;DHT22;4746;35.664;139.738;2022-12-05T08:11:29;7.60;1.00
9414;DHT22;4746;35.664;139.738;2022-12-05T08:14:02;7.60;20.10
9414;DHT22;4746;35.664;139.738;2022-12-05T08:16:32;7.50;31.10
9414;DHT22;4746;35.664;139.738;2022-12-05T08:19:02;7.60;97.40
9414;DHT22;4746;35.664;139.738;2022-12-05T08:21:31;7.60;99.90
9414;DHT22;4746;35.664;139.738;2022-12-05T08:24:01;7.60;99.90
9414;DHT22;4746;35.664;139.738;2022-12-05T08:26:31;7.50;99.90
9414;DHT22;4746;35.664;139.738;2022-12-05T08:29:06;7.50;99.90
9414;DHT22;4746;35.664;139.738;2022-12-05T08:31:43;7.50;99.90
9414;DHT22;4746;35.664;139.738;2022-12-05T08:34:16;7.50;99.90
9414;DHT22;4746;35.664;139.738;2022-12-05T08:36:45;7.50;99.90
9414;DHT22;4746;35.664;139.738;2022-12-05T08:39:16;7.50;99.90
9414;DHT22;4746;35.664;139.738;2022-12-05T08:41:46;7.50;99.90
9414;DHT22;4746;35.664;139.738;2022-12-05T08:44:15;7.60;99.90
9414;DHT22;4746;35.664;139.738;2022-12-05T08:46:48;7.60;99.90
9414;DHT22;4746;35.664;139.738;2022-12-05T08:49:16;7.60;99.90
9414;DHT22;4746;35.664;139.738;2022-12-05T08:51:43;7.60;99.90
9414;DHT22;4746;35.664;139.738;2022-12-05T08:54:11;7.60;99.90
9414;DHT22;4746;35.664;139.738;2022-12-05T08:56:39;7.60;99.90
9414;DHT22;4746;35.664;139.738;2022-12-05T08:59:07;7.60;99.90
9414;DHT22;4746;35.664;139.738;2022-12-05T09:01:36;7.50;99.90
9414;DHT22;4746;35.664;139.738;2022-12-05T09:04:05;7.60;99.90
9414;DHT22;4746;35.664;139.738;2022-12-05T09:06:34;7.60;99.90
9414;DHT22;4746;35.664;139.738;2022-12-05T09:09:05;7.60;99.90
9414;DHT22;4746;35.664;139.738;2022-12-05T09:11:40;7.70;99.90
9414;DHT22;4746;35.664;139.738;2022-12-05T09:14:14;7.70;99.90
9414;DHT22;4746;35.664;139.738;2022-12-05T09:16:44;7.60;99.90
9414;DHT22;4746;35.664;139.738;2022-12-05T09:19:15;7.70;99.90
9414;DHT22;4746;35.664;139.738;2022-12-05T09:21:46;7.60;99.90
9414;DHT22;4746;35.664;139.738;2022-12-05T09:24:15;7.60;99.90
9414;DHT22;4746;35.664;139.738;2022-12-05T09:26:43;7.50;99.90
9414;DHT22;4746;35.664;139.738;2022-12-05T09:29:12;7.50;99.90
9414;DHT22;4746;35.664;139.738;2022-12-05T09:31:43;7.50;99.90
9414;DHT22;4746;35.664;139.738;2022-12-05T09:34:13;7.50;99.90
9414;DHT22;4746;35.664;139.738;2022-12-05T09:36:43;7.50;99.90
9414;DHT22;4746;35.664;139.738;2022-12-05T09:39:11;7.40;99.90
9414;DHT22;4746;35.664;139.738;2022-12-05T09:50:33;7.40;99.90
9414;DHT22;4746;35.664;139.738;2022-12-05T09:53:28;7.50;99.90
9414;DHT22;4746;35.664;139.738;2022-12-05T09:58:53;7.50;99.90
9414;DHT22;4746;35.664;139.738;2022-12-05T10:07:24;7.50;99.90
9414;DHT22;4746;35.664;139.738;2022-12-05T10:10:19;7.50;99.90
9414;DHT22;4746;35.664;139.738;2022-12-05T10:13:28;7.40;99.90
9414;DHT22;4746;35.664;139.738;2022-12-05T10:16:12;7.40;99.90
9414;DHT22;4746;35.664;139.738;2022-12-05T10:19:24;7.40;99.90
9414;DHT22;4746;35.664;139.738;2022-12-05T10:22:14;7.40;99.90
9414;DHT22;4746;35.664;139.738;2022-12-05T10:24:51;7.30;99.90
9414;DHT22;4746;35.664;139.738;2022-12-05T10:27:37;7.30;99.90
9414;DHT22;4746;35.664;139.738;2022-12-05T10:30:15;7.30;99.90
9414;DHT22;4746;35.664;139.738;2022-12-05T10:33:00;7.20;99.90
9414;DHT22;4746;35.664;139.738;2022-12-05T10:35:40;7.10;99.90
9414;DHT22;4746;35.664;139.738;2022-12-05T10:38:26;7.20;99.90
9414;DHT22;4746;35.664;139.738;2022-12-05T10:41:02;7.10;99.90
9414;DHT22;4746;35.664;139.738;2022-12-05T10:43:34;7.10;99.90
9414;DHT22;4746;35.664;139.738;2022-12-05T10:46:06;7.20;99.90
9414;DHT22;4746;35.664;139.738;2022-12-05T10:48:39;7.20;99.90
9414;DHT22;4746;35.664;139.738;2022-12-05T10:51:15;7.10;99.90
9414;DHT22;4746;35.664;139.738;2022-12-05T10:53:53;7.10;99.90
9414;DHT22;4746;35.664;139.738;2022-12-05T10:59:16;7.10;99.90
9414;DHT22;4746;35.664;139.738;2022-12-05T11:01:51;7.10;99.90
9414;DHT22;4746;35.664;139.738;2022-12-05T11:04:25;7.10;99.90
9414;DHT22;4746;35.664;139.738;2022-12-05T11:07:00;7.20;99.90
9414;DHT22;4746;35.664;139.738;2022-12-05T11:09:36;7.20;99.90
9414;DHT22;4746;35.664;139.738;2022-12-05T11:12:22;7.20;99.90
9414;DHT22;4746;35.664;139.738;2022-12-05T11:17:56;7.20;99.90
9414;DHT22;4746;35.664;139.738;2022-12-05T11:20:43;7.00;99.90
9414;DHT22;4746;35.664;139.738;2022-12-05T11:23:23;7.00;99.90
9414;DHT22;4746;35.664;139.738;2022-12-05T11:25:57;7.10;99.90
9414;DHT22;4746;35.664;139.738;2022-12-05T11:28:33;7.20;99.90
9414;DHT22;4746;35.664;139.738;2022-12-05T11:33:42;7.50;99.90
9414;DHT22;4746;35.664;139.738;2022-12-05T11:36:39;7.60;99.90
9414;DHT22;4746;35.664;139.738;2022-12-05T11:39:13;7.70;99.90
9414;DHT22;4746;35.664;139.738;2022-12-05T11:51:15;8.10;99.90
9414;DHT22;4746;35.664;139.738;2022-12-05T12:02:53;7.80;99.90
9414;DHT22;4746;35.664;139.738;2022-12-05T12:08:37;7.70;99.90
9414;DHT22;4746;35.664;139.738;2022-12-05T12:12:00;7.70;99.90
9414;DHT22;4746;35.664;139.738;2022-12-05T12:14:43;7.60;99.90
9414;DHT22;4746;35.664;139.738;2022-12-05T12:28:09;7.60;99.90
9414;DHT22;4746;35.664;139.738;2022-12-05T12:30:27;7.60;99.90
9414;DHT22;4746;35.664;139.738;2022-12-05T12:36:50;7.60;99.90
9414;DHT22;4746;35.664;139.738;2022-12-05T12:39:41;7.50;99.90
9414;DHT22;4746;35.664;139.738;2022-12-05T12:52:02;7.40;99.90
9414;DHT22;4746;35.664;139.738;2022-12-05T13:02:46;7.30;99.90
9414;DHT22;4746;35.664;139.738;2022-12-05T13:11:12;7.30;99.90
9414;DHT22;4746;35.664;139.738;2022-12-05T13:13:49;7.30;99.90
9414;DHT22;4746;35.664;139.738;2022-12-05T13:16:32;7.20;99.90
9414;DHT22;4746;35.664;139.738;2022-12-05T13:19:22;7.20;99.90
9414;DHT22;4746;35.664;139.738;2022-12-05T13:21:57;7.20;99.90
9414;DHT22;4746;35.664;139.738;2022-12-05T13:24:27;7.30;99.90
9414;DHT22;4746;35.664;139.738;2022-12-05T13:27:01;7.30;99.90
9414;DHT22;4746;35.664;139.738;2022-12-05T13:29:39;7.20;99.90
9414;DHT22;4746;35.664;139.738;2022-12-05T13:32:34;7.20;99.90
9414;DHT22;4746;35.664;139.738;2022-12-05T13:35:20;7.10;99.90
9414;DHT22;4746;35.664;139.738;2022-12-05T13:38:36;7.10;99.90
9414;DHT22;4746;35.664;139.738;2022-12-05T13:41:44;7.10;99.90
9414;DHT22;4746;35.664;139.738;2022-12-05T13:44:50;7.10;99.90
9414;DHT22;4746;35.664;139.738;2022-12-05T13:53:42;7.20;99.90
9414;DHT22;4746;35.664;139.738;2022-12-05T14:04:00;7.20;99.90
9414;DHT22;4746;35.664;139.738;2022-12-05T14:17:28;7.20;99.90
9414;DHT22;4746;35.664;139.738;2022-12-05T14:23:36;7.20;99.90
9414;DHT22;4746;35.664;139.738;2022-12-05T14:30:02;7.20;99.90
9414;DHT22;4746;35.664;139.738;2022-12-05T14:32:40;7.20;99.90
9414;DHT22;4746;35.664;139.738;2022-12-05T14:35:24;7.20;99.90
9414;DHT22;4746;35.664;139.738;2022-12-05T14:38:06;7.20;99.90
9414;DHT22;4746;35.664;139.738;2022-12-05T14:40:46;7.20;99.90
9414;DHT22;4746;35.664;139.738;2022-12-05T14:43:33;7.20;99.90
9414;DHT22;4746;35.664;139.738;2022-12-05T14:46:05;7.20;99.90
9414;DHT22;4746;35.664;139.738;2022-12-05T14:48:42;7.10;99.90
9414;DHT22;4746;35.664;139.738;2022-12-05T14:51:53;7.10;99.90
9414;DHT22;4746;35.664;139.738;2022-12-05T14:54:23;7.00;99.90
9414;DHT22;4746;35.664;139.738;2022-12-05T14:56:59;7.00;99.90
9414;DHT22;4746;35.664;139.738;2022-12-05T14:59:50;7.00;99.90
9414;DHT22;4746;35.664;139.738;2022-12-05T15:02:31;6.90;99.90
9414;DHT22;4746;35.664;139.738;2022-12-05T15:05:26;6.90;99.90
9414;DHT22;4746;35.664;139.738;2022-12-05T15:07:59;6.90;99.90
9414;DHT22;4746;35.664;139.738;2022-12-05T15:10:34;6.90;99.90
9414;DHT22;4746;35.664;139.738;2022-12-05T15:13:18;6.90;99.90
9414;DHT22;4746;35.664;139.738;2022-12-05T15:16:05;6.80;99.90
9414;DHT22;4746;35.664;139.738;2022-12-05T15:18:53;6.70;99.90
9414;DHT22;4746;35.664;139.738;2022-12-05T15:24:36;6.70;99.90
9414;DHT22;4746;35.664;139.738;2022-12-05T15:27:07;6.60;99.90
9414;DHT22;4746;35.664;139.738;2022-12-05T15:29:38;6.60;99.90
9414;DHT22;4746;35.664;139.738;2022-12-05T15:32:17;6.60;99.90
9414;DHT22;4746;35.664;139.738;2022-12-05T15:35:05;6.60;99.90
9414;DHT22;4746;35.664;139.738;2022-12-05T15:40:24;6.50;99.90
9414;DHT22;4746;35.664;139.738;2022-12-05T15:43:31;6.40;99.90
9414;DHT22;4746;35.664;139.738;2022-12-05T15:46:20;6.40;99.90
9414;DHT22;4746;35.664;139.738;2022-12-05T15:48:51;6.40;99.90
9414;DHT22;4746;35.664;139.738;2022-12-05T15:51:35;6.40;99.90
9414;DHT22;4746;35.664;139.738;2022-12-05T15:54:13;6.50;99.90
9414;DHT22;4746;35.664;139.738;2022-12-05T15:56:59;6.40;99.90
9414;DHT22;4746;35.664;139.738;2022-12-05T15:59:44;6.40;99.90
9414;DHT22;4746;35.664;139.738;2022-12-05T16:05:40;6.40;99.90
9414;DHT22;4746;35.664;139.738;2022-12-05T16:08:27;6.40;99.90
9414;DHT22;4746;35.664;139.738;2022-12-05T16:11:12;6.40;99.90
9414;DHT22;4746;35.664;139.738;2022-12-05T16:13:46;6.40;99.90
9414;DHT22;4746;35.664;139.738;2022-12-05T16:16:23;6.40;99.90
9414;DHT22;4746;35.664;139.738;2022-12-05T16:18:56;6.30;99.90
9414;DHT22;4746;35.664;139.738;2022-12-05T16:21:32;6.30;99.90
9414;DHT22;4746;35.664;139.738;2022-12-05T16:24:19;6.30;99.90
9414;DHT22;4746;35.664;139.738;2022-12-05T16:26:57;6.30;99.90
9414;DHT22;4746;35.664;139.738;2022-12-05T16:29:31;6.20;99.90
9414;DHT22;4746;35.664;139.738;2022-12-05T16:32:02;6.20;99.90
9414;DHT22;4746;35.664;139.738;2022-12-05T16:34:39;6.20;99.90
9414;DHT22;4746;35.664;139.738;2022-12-05T16:37:24;6.10;99.90
9414;DHT22;4746;35.664;139.738;2022-12-05T16:39:54;6.10;99.90
9414;DHT22;4746;35.664;139.738;2022-12-05T16:42:29;6.10;99.90
9414;DHT22;4746;35.664;139.738;2022-12-05T16:44:59;6.10;99.90
9414;DHT22;4746;35.664;139.738;2022-12-05T16:50:23;6.00;99.90
9414;DHT22;4746;35.664;139.738;2022-12-05T16:53:26;6.00;99.90
9414;DHT22;4746;35.664;139.738;2022-12-05T16:55:58;6.00;99.90
9414;DHT22;4746;35.664;139.738;2022-12-05T16:58:28;6.00;99.90
9414;DHT22;4746;35.664;139.738;2022-12-05T17:01:02;6.00;99.90
9414;DHT22;4746;35.664;139.738;2022-12-05T17:03:32;6.00;99.90
9414;DHT22;4746;35.664;139.738;2022-12-05T17:06:00;6.00;99.90
9414;DHT22;4746;35.664;139.738;2022-12-05T17:08:28;6.00;99.90
9414;DHT22;4746;35.664;139.738;2022-12-05T17:10:55;6.10;99.90
9414;DHT22;4746;35.664;139.738;2022-12-05T17:13:23;6.10;99.90
9414;DHT22;4746;35.664;139.738;2022-12-05T17:15:51;6.00;99.90
9414;DHT22;4746;35.664;139.738;2022-12-05T17:18:20;6.00;99.90
9414;DHT22;4746;35.664;139.738;2022-12-05T17:20:53;6.00;99.90
9414;DHT22;4746;35.664;139.738;2022-12-05T17:23:22;6.00;99.90
9414;DHT22;4746;35.664;139.738;2022-12-05T17:25:53;5.90;99.90
9414;DHT22;4746;35.664;139.738;2022-12-05T17:28:22;5.90;99.90
9414;DHT22;4746;35.664;139.738;2022-12-05T17:30:50;5.90;99.90
9414;DHT22;4746;35.664;139.738;2022-12-05T17:33:19;5.90;99.90
9414;DHT22;4746;35.664;139.738;2022-12-05T17:35:48;5.90;99.90
9414;DHT22;4746;35.664;139.738;2022-12-05T17:38:17;5.90;99.90
9414;DHT22;4746;35.664;139.738;2022-12-05T17:40:47;5.90;99.90
9414;DHT22;4746;35.664;139.738;2022-12-05T17:43:15;5.80;99.90
9414;DHT22;4746;35.664;139.738;2022-12-05T17:45:43;5.80;99.90
9414;DHT22;4746;35.664;139.738;2022-12-05T17:48:14;5.80;99.90
9414;DHT22;4746;35.664;139.738;2022-12-05T17:50:44;5.70;99.90
9414;DHT22;4746;35.664;139.738;2022-12-05T17:53:15;5.70;99.90
9414;DHT22;4746;35.664;139.738;2022-12-05T17:55:44;5.70;99.90
9414;DHT22;4746;35.664;139.738;2022-12-05T17:58:16;5.70;99.90
9414;DHT22;4746;35.664;139.738;2022-12-05T18:00:46;5.60;99.90
9414;DHT22;4746;35.664;139.738;2022-12-05T18:03:16;5.60;99.90
9414;DHT22;4746;35.664;139.738;2022-12-05T18:05:45;5.60;99.90
9414;DHT22;4746;35.664;139.738;2022-12-05T18:08:13;5.60;99.90
9414;DHT22;4746;35.664;139.738;2022-12-05T18:10:44;5.70;99.90
9414;DHT22;4746;35.664;139.738;2022-12-05T18:13:14;5.70;99.90
9414;DHT22;4746;35.664;139.738;2022-12-05T18:15:45;5.70;99.90
9414;DHT22;4746;35.664;139.738;2022-12-05T18:18:16;5.70;99.90
9414;DHT22;4746;35.664;139.738;2022-12-05T18:20:44;5.70;99.90
9414;DHT22;4746;35.664;139.738;2022-12-05T18:23:11;5.80;99.90
9414;DHT22;4746;35.664;139.738;2022-12-05T18:25:40;5.80;99.90
9414;DHT22;4746;35.664;139.738;2022-12-05T18:28:08;5.80;99.90
9414;DHT22;4746;35.664;139.738;2022-12-05T18:30:35;5.80;99.90
9414;DHT22;4746;35.664;139.738;2022-12-05T18:33:03;5.80;99.90
9414;DHT22;4746;35.664;139.738;2022-12-05T18:35:30;5.90;99.90
9414;DHT22;4746;35.664;139.738;2022-12-05T18:38:09;5.80;99.90
9414;DHT22;4746;35.664;139.738;2022-12-05T18:40:37;5.80;99.90
9414;DHT22;4746;35.664;139.738;2022-12-05T18:43:05;5.90;99.90
9414;DHT22;4746;35.664;139.738;2022-12-05T18:45:32;5.90;99.90
9414;DHT22;4746;35.664;139.738;2022-12-05T18:48:00;5.90;99.90
9414;DHT22;4746;35.664;139.738;2022-12-05T18:50:27;5.80;99.90
9414;DHT22;4746;35.664;139.738;2022-12-05T18:52:56;5.80;99.90
9414;DHT22;4746;35.664;139.738;2022-12-05T18:55:23;5.80;99.90
9414;DHT22;4746;35.664;139.738;2022-12-05T18:57:51;5.70;99.90
9414;DHT22;4746;35.664;139.738;2022-12-05T19:00:19;5.70;99.90
9414;DHT22;4746;35.664;139.738;2022-12-05T19:02:48;5.60;99.90
9414;DHT22;4746;35.664;139.738;2022-12-05T19:05:16;5.60;99.90
9414;DHT22;4746;35.664;139.738;2022-12-05T19:07:43;5.60;99.90
9414;DHT22;4746;35.664;139.738;2022-12-05T19:10:11;5.60;99.90
9414;DHT22;4746;35.664;139.738;2022-12-05T19:12:39;5.60;99.90
9414;DHT22;4746;35.664;139.738;2022-12-05T19:15:09;5.60;99.90
9414;DHT22;4746;35.664;139.738;2022-12-05T19:17:37;5.60;99.90
9414;DHT22;4746;35.664;139.738;2022-12-05T19:20:05;5.50;99.90
9414;DHT22;4746;35.664;139.738;2022-12-05T19:22:37;5.50;99.90
9414;DHT22;4746;35.664;139.738;2022-12-05T19:25:05;5.50;99.90
9414;DHT22;4746;35.664;139.738;2022-12-05T19:27:33;5.50;99.90
9414;DHT22;4746;35.664;139.738;2022-12-05T19:30:01;5.40;99.90